createdAt,value
2022-08-18T00:00:18.357Z,16.40
2022-08-18T00:01:14.588Z,16.47
2022-08-18T00:02:14.529Z,16.54
2022-08-18T00:03:53.488Z,16.46
2022-08-18T00:04:25.201Z,16.44
2022-08-18T00:05:15.344Z,16.37
2022-08-18T00:06:14.337Z,16.44
2022-08-18T00:07:14.345Z,16.36
2022-08-18T00:08:14.345Z,16.40
2022-08-18T00:09:14.338Z,16.39
2022-08-18T00:10:18.224Z,16.37
2022-08-18T00:11:14.327Z,16.37
2022-08-18T00:12:14.326Z,16.43
2022-08-18T00:13:14.315Z,16.36
2022-08-18T00:14:22.193Z,16.42
2022-08-18T00:15:14.294Z,16.34
2022-08-18T00:16:14.291Z,16.40
2022-08-18T00:17:14.289Z,16.43
2022-08-18T00:18:14.286Z,16.36
2022-08-18T00:19:14.276Z,16.39
2022-08-18T00:20:14.272Z,16.44
2022-08-18T00:21:14.257Z,16.39
2022-08-18T00:22:15.319Z,16.37
2022-08-18T00:23:14.268Z,16.37
2022-08-18T00:24:14.266Z,16.40
2022-08-18T00:25:14.239Z,16.33
2022-08-18T00:26:14.245Z,16.26
2022-08-18T00:27:14.226Z,16.32
2022-08-18T00:28:14.234Z,16.29
2022-08-18T00:29:14.234Z,16.29
2022-08-18T00:30:14.201Z,16.36
2022-08-18T00:31:14.221Z,16.34
2022-08-18T00:32:14.194Z,16.34
2022-08-18T00:33:14.207Z,16.34
2022-08-18T00:34:14.221Z,16.39
2022-08-18T00:35:14.198Z,16.39
2022-08-18T00:36:14.164Z,16.36
2022-08-18T00:37:14.163Z,16.42
2022-08-18T00:38:24.204Z,16.42
2022-08-18T00:39:15.176Z,16.39
2022-08-18T00:40:14.263Z,16.42
2022-08-18T00:41:14.145Z,16.42
2022-08-18T00:42:14.133Z,16.43
2022-08-18T00:43:15.156Z,16.40
2022-08-18T00:44:14.126Z,16.40
2022-08-18T00:45:14.133Z,16.34
2022-08-18T00:46:14.120Z,16.42
2022-08-18T00:47:14.110Z,16.25
2022-08-18T00:48:15.113Z,16.25
2022-08-18T00:49:14.227Z,16.28
2022-08-18T00:50:15.473Z,16.21
2022-08-18T00:51:14.096Z,16.18
2022-08-18T00:52:14.077Z,16.13
2022-08-18T00:53:14.069Z,16.16
2022-08-18T00:54:14.092Z,16.13
2022-08-18T00:55:15.076Z,16.09
2022-08-18T00:56:14.052Z,16.06
2022-08-18T00:57:14.043Z,16.14
2022-08-18T00:58:14.036Z,16.13
2022-08-18T00:59:14.045Z,16.06
2022-08-18T01:00:14.162Z,16.10
2022-08-18T01:01:14.149Z,16.14
2022-08-18T01:02:14.022Z,16.17
2022-08-18T01:03:14.019Z,16.14
2022-08-18T01:04:14.004Z,16.17
2022-08-18T01:05:14.114Z,16.16
2022-08-18T01:06:14.004Z,16.17
2022-08-18T01:07:13.991Z,16.14
2022-08-18T01:08:14.002Z,16.09
2022-08-18T01:09:14.000Z,16.08
2022-08-18T01:10:13.973Z,15.99
2022-08-18T01:11:14.019Z,15.96
2022-08-18T01:12:44.086Z,15.88
2022-08-18T01:13:14.971Z,15.84
2022-08-18T01:14:13.950Z,15.88
2022-08-18T01:15:28.003Z,15.85
2022-08-18T01:16:15.064Z,15.90
2022-08-18T01:17:13.946Z,15.96
2022-08-18T01:18:13.918Z,15.91
2022-08-18T01:19:13.924Z,16.08
2022-08-18T01:20:13.921Z,16.09
2022-08-18T01:21:13.921Z,16.10
2022-08-18T01:22:13.942Z,16.10
2022-08-18T01:23:13.926Z,16.03
2022-08-18T01:24:16.447Z,16.08
2022-08-18T01:25:13.895Z,16.10
2022-08-18T01:26:13.905Z,15.95
2022-08-18T01:27:13.919Z,15.99
2022-08-18T01:28:13.866Z,15.96
2022-08-18T01:29:18.880Z,15.99
2022-08-18T01:30:14.875Z,15.91
2022-08-18T01:31:13.867Z,15.99
2022-08-18T01:32:13.855Z,15.99
2022-08-18T01:33:13.893Z,15.98
2022-08-18T01:34:13.865Z,16.02
2022-08-18T01:35:13.856Z,16.05
2022-08-18T01:36:13.839Z,16.02
2022-08-18T01:37:13.840Z,16.03
2022-08-18T01:38:13.849Z,16.05
2022-08-18T01:39:13.804Z,16.08
2022-08-18T01:41:17.487Z,16.00
2022-08-18T01:41:27.719Z,16.06
2022-08-18T01:42:15.837Z,16.03
2022-08-18T01:43:13.799Z,16.00
2022-08-18T01:44:13.819Z,16.00
2022-08-18T01:45:13.780Z,15.99
2022-08-18T01:46:13.785Z,16.06
2022-08-18T01:47:13.770Z,16.00
2022-08-18T01:48:13.766Z,15.95
2022-08-18T01:49:13.781Z,15.95
2022-08-18T01:50:13.763Z,15.96
2022-08-18T01:51:13.743Z,15.98
2022-08-18T01:52:13.751Z,16.02
2022-08-18T01:53:13.735Z,15.96
2022-08-18T01:54:13.728Z,16.05
2022-08-18T01:55:14.621Z,15.98
2022-08-18T01:56:13.723Z,15.91
2022-08-18T01:57:13.721Z,15.91
2022-08-18T01:58:13.720Z,15.91
2022-08-18T01:59:13.698Z,15.90
2022-08-18T02:00:13.735Z,15.81
2022-08-18T02:01:13.712Z,15.91
2022-08-18T02:02:18.546Z,15.85
2022-08-18T02:03:13.673Z,15.87
2022-08-18T02:04:33.712Z,15.85
2022-08-18T02:05:15.702Z,15.83
2022-08-18T02:06:14.723Z,15.81
2022-08-18T02:07:13.665Z,15.72
2022-08-18T02:08:13.656Z,15.77
2022-08-18T02:09:13.645Z,15.77
2022-08-18T02:10:16.241Z,15.81
2022-08-18T02:11:13.754Z,15.76
2022-08-18T02:12:13.628Z,15.76
2022-08-18T02:13:13.630Z,15.87
2022-08-18T02:14:13.619Z,15.85
2022-08-18T02:15:13.624Z,15.91
2022-08-18T02:16:13.623Z,15.91
2022-08-18T02:17:13.603Z,15.85
2022-08-18T02:18:13.613Z,15.69
2022-08-18T02:19:14.574Z,15.54
2022-08-18T02:20:13.580Z,15.52
2022-08-18T02:21:13.581Z,15.54
2022-08-18T02:22:13.689Z,15.63
2022-08-18T02:23:13.549Z,15.45
2022-08-18T02:24:13.560Z,15.59
2022-08-18T02:25:13.551Z,15.63
2022-08-18T02:26:14.554Z,15.58
2022-08-18T02:27:13.657Z,15.50
2022-08-18T02:28:13.537Z,15.54
2022-08-18T02:29:13.537Z,15.51
2022-08-18T02:30:13.545Z,15.62
2022-08-18T02:31:13.519Z,15.59
2022-08-18T02:32:13.507Z,15.63
2022-08-18T02:33:13.530Z,15.69
2022-08-18T02:34:13.508Z,15.59
2022-08-18T02:35:13.501Z,15.68
2022-08-18T02:36:13.496Z,15.73
2022-08-18T02:37:15.533Z,15.60
2022-08-18T02:38:14.512Z,15.69
2022-08-18T02:39:13.492Z,15.76
2022-08-18T02:40:14.718Z,15.72
2022-08-18T02:41:13.451Z,15.68
2022-08-18T02:42:13.478Z,15.65
2022-08-18T02:43:13.467Z,15.70
2022-08-18T02:44:13.461Z,15.77
2022-08-18T02:45:13.438Z,15.80
2022-08-18T02:46:13.435Z,15.84
2022-08-18T02:47:13.430Z,15.80
2022-08-18T02:48:13.438Z,15.83
2022-08-18T02:49:13.442Z,15.84
2022-08-18T02:50:13.415Z,16.03
2022-08-18T02:51:13.396Z,15.90
2022-08-18T02:52:13.401Z,15.91
2022-08-18T02:53:13.414Z,15.98
2022-08-18T02:54:13.422Z,15.99
2022-08-18T02:55:13.398Z,15.98
2022-08-18T02:56:13.388Z,15.93
2022-08-18T02:57:13.364Z,15.95
2022-08-18T02:58:13.391Z,15.87
2022-08-18T02:59:13.382Z,15.84
2022-08-18T03:00:13.351Z,15.88
2022-08-18T03:01:13.384Z,15.87
2022-08-18T03:02:13.330Z,15.93
2022-08-18T03:03:14.373Z,15.91
2022-08-18T03:04:13.325Z,15.83
2022-08-18T03:05:14.806Z,15.91
2022-08-18T03:06:13.339Z,15.96
2022-08-18T03:07:13.328Z,15.84
2022-08-18T03:08:13.329Z,15.93
2022-08-18T03:09:13.329Z,15.95
2022-08-18T03:10:33.260Z,15.85
2022-08-18T03:11:13.288Z,15.93
2022-08-18T03:12:13.294Z,15.95
2022-08-18T03:13:13.307Z,15.98
2022-08-18T03:14:13.317Z,15.91
2022-08-18T03:15:13.276Z,15.98
2022-08-18T03:16:13.284Z,15.90
2022-08-18T03:17:13.270Z,15.98
2022-08-18T03:18:13.260Z,15.96
2022-08-18T03:19:13.248Z,16.05
2022-08-18T03:20:13.356Z,15.99
2022-08-18T03:21:13.246Z,16.02
2022-08-18T03:22:27.654Z,16.14
2022-08-18T03:23:14.236Z,16.09
2022-08-18T03:24:15.819Z,16.13
2022-08-18T03:25:13.239Z,16.09
2022-08-18T03:26:13.222Z,16.13
2022-08-18T03:27:13.200Z,16.09
2022-08-18T03:28:13.209Z,16.08
2022-08-18T03:29:13.187Z,16.05
2022-08-18T03:30:13.212Z,16.03
2022-08-18T03:31:13.203Z,15.91
2022-08-18T03:32:13.186Z,15.95
2022-08-18T03:33:13.178Z,15.96
2022-08-18T03:34:13.173Z,15.96
2022-08-18T03:35:13.151Z,15.81
2022-08-18T03:36:13.186Z,15.83
2022-08-18T03:37:13.143Z,15.93
2022-08-18T03:38:13.161Z,15.91
2022-08-18T03:39:13.144Z,15.98
2022-08-18T03:40:13.190Z,15.90
2022-08-18T03:41:13.136Z,15.99
2022-08-18T03:42:13.155Z,15.95
2022-08-18T03:43:49.471Z,15.93
2022-08-18T03:44:14.122Z,16.05
2022-08-18T03:45:17.762Z,15.98
2022-08-18T03:46:14.147Z,15.98
2022-08-18T03:47:13.153Z,16.06
2022-08-18T03:48:13.216Z,16.13
2022-08-18T03:49:13.087Z,16.06
2022-08-18T03:50:14.248Z,16.02
2022-08-18T03:51:13.115Z,16.09
2022-08-18T03:52:13.129Z,16.14
2022-08-18T03:53:13.107Z,16.05
2022-08-18T03:54:13.079Z,16.09
2022-08-18T03:55:13.058Z,16.08
2022-08-18T03:56:13.056Z,16.00
2022-08-18T03:57:13.057Z,16.02
2022-08-18T03:58:13.163Z,16.06
2022-08-18T03:59:13.042Z,16.13
2022-08-18T04:00:13.041Z,16.09
2022-08-18T04:01:13.109Z,16.22
2022-08-18T04:02:14.008Z,16.14
2022-08-18T04:03:13.021Z,16.16
2022-08-18T04:04:13.123Z,16.14
2022-08-18T04:05:12.997Z,16.25
2022-08-18T04:06:13.014Z,16.18
2022-08-18T04:07:12.988Z,16.21
2022-08-18T04:08:12.994Z,16.17
2022-08-18T04:09:13.008Z,16.17
2022-08-18T04:10:19.086Z,16.21
2022-08-18T04:11:13.978Z,16.28
2022-08-18T04:12:16.345Z,16.25
2022-08-18T04:13:12.982Z,16.26
2022-08-18T04:14:12.952Z,16.26
2022-08-18T04:15:12.994Z,16.25
2022-08-18T04:16:12.955Z,16.26
2022-08-18T04:17:12.957Z,16.21
2022-08-18T04:18:12.945Z,16.22
2022-08-18T04:19:12.936Z,16.25
2022-08-18T04:20:12.946Z,16.21
2022-08-18T04:21:12.926Z,16.18
2022-08-18T04:22:17.294Z,15.95
2022-08-18T04:23:13.914Z,16.02
2022-08-18T04:24:12.896Z,16.06
2022-08-18T04:25:12.891Z,16.06
2022-08-18T04:26:19.254Z,16.03
2022-08-18T04:27:12.925Z,16.13
2022-08-18T04:28:12.882Z,16.13
2022-08-18T04:29:12.878Z,16.10
2022-08-18T04:30:12.898Z,16.09
2022-08-18T04:31:12.886Z,16.09
2022-08-18T04:32:12.882Z,16.13
2022-08-18T04:33:12.846Z,16.13
2022-08-18T04:34:13.855Z,16.09
2022-08-18T04:35:14.262Z,16.17
2022-08-18T04:36:12.829Z,16.17
2022-08-18T04:37:12.848Z,16.13
2022-08-18T04:38:13.828Z,16.14
2022-08-18T04:39:12.816Z,16.22
2022-08-18T04:40:12.947Z,16.22
2022-08-18T04:41:12.809Z,16.32
2022-08-18T04:42:12.819Z,16.26
2022-08-18T04:43:12.787Z,16.32
2022-08-18T04:44:12.799Z,16.22
2022-08-18T04:45:12.775Z,16.32
2022-08-18T04:46:12.798Z,16.21
2022-08-18T04:47:12.778Z,16.22
2022-08-18T04:48:12.885Z,16.25
2022-08-18T04:49:12.761Z,16.24
2022-08-18T04:50:12.752Z,16.26
2022-08-18T04:51:12.746Z,16.25
2022-08-18T04:52:34.135Z,16.22
2022-08-18T04:53:13.846Z,16.13
2022-08-18T04:54:12.792Z,16.25
2022-08-18T04:55:12.723Z,16.29
2022-08-18T04:56:12.740Z,16.26
2022-08-18T04:57:12.719Z,16.33
2022-08-18T04:58:12.698Z,16.44
2022-08-18T04:59:12.837Z,16.52
2022-08-18T05:00:12.693Z,16.39
2022-08-18T05:01:12.711Z,16.47
2022-08-18T05:02:14.773Z,16.42
2022-08-18T05:03:13.675Z,16.43
2022-08-18T05:04:12.785Z,16.47
2022-08-18T05:05:12.670Z,16.58
2022-08-18T05:06:12.658Z,16.59
2022-08-18T05:07:13.654Z,16.49
2022-08-18T05:08:12.651Z,16.55
2022-08-18T05:09:12.639Z,16.61
2022-08-18T05:10:12.753Z,16.62
2022-08-18T05:11:12.648Z,16.65
2022-08-18T05:12:12.641Z,16.59
2022-08-18T05:13:12.620Z,16.62
2022-08-18T05:14:12.614Z,16.62
2022-08-18T05:15:12.635Z,16.54
2022-08-18T05:16:18.162Z,16.62
2022-08-18T05:17:12.596Z,16.61
2022-08-18T05:18:13.947Z,16.73
2022-08-18T05:19:12.591Z,16.67
2022-08-18T05:20:12.587Z,16.74
2022-08-18T05:21:12.601Z,16.73
2022-08-18T05:22:12.591Z,16.79
2022-08-18T05:23:12.580Z,16.84
2022-08-18T05:24:12.576Z,16.80
2022-08-18T05:25:12.574Z,16.87
2022-08-18T05:26:12.682Z,16.82
2022-08-18T05:27:12.534Z,16.94
2022-08-18T05:28:12.560Z,16.99
2022-08-18T05:29:18.628Z,16.90
2022-08-18T05:30:13.543Z,17.02
2022-08-18T05:31:13.951Z,16.95
2022-08-18T05:32:40.995Z,17.04
2022-08-18T05:33:13.509Z,17.04
2022-08-18T05:34:12.513Z,16.97
2022-08-18T05:35:12.520Z,16.99
2022-08-18T05:36:12.495Z,16.98
2022-08-18T05:37:12.507Z,16.97
2022-08-18T05:38:12.487Z,17.06
2022-08-18T05:39:12.493Z,17.07
2022-08-18T05:40:12.562Z,17.02
2022-08-18T05:41:13.765Z,17.16
2022-08-18T05:42:12.463Z,17.27
2022-08-18T05:43:12.496Z,17.25
2022-08-18T05:44:12.460Z,17.35
2022-08-18T05:45:12.457Z,17.35
2022-08-18T05:46:12.458Z,17.35
2022-08-18T05:47:12.426Z,17.35
2022-08-18T05:48:12.463Z,17.43
2022-08-18T05:49:12.419Z,17.50
2022-08-18T05:50:13.412Z,17.50
2022-08-18T05:51:12.412Z,17.54
2022-08-18T05:52:12.414Z,17.62
2022-08-18T05:53:13.582Z,17.56
2022-08-18T05:54:12.439Z,17.57
2022-08-18T05:55:12.402Z,17.62
2022-08-18T05:56:12.425Z,17.68
2022-08-18T05:57:12.377Z,17.65
2022-08-18T05:58:12.387Z,17.69
2022-08-18T05:59:12.387Z,17.75
2022-08-18T06:00:12.374Z,17.78
2022-08-18T06:01:12.371Z,17.78
2022-08-18T06:02:12.362Z,17.83
2022-08-18T06:03:12.425Z,17.84
2022-08-18T06:04:12.339Z,17.97
2022-08-18T06:05:12.445Z,17.90
2022-08-18T06:06:13.164Z,18.08
2022-08-18T06:07:12.354Z,18.08
2022-08-18T06:08:12.322Z,17.96
2022-08-18T06:09:12.308Z,18.02
2022-08-18T06:10:12.348Z,18.13
2022-08-18T06:11:17.287Z,18.20
2022-08-18T06:12:13.314Z,18.08
2022-08-18T06:13:12.294Z,18.17
2022-08-18T06:14:12.280Z,18.15
2022-08-18T06:15:12.276Z,18.17
2022-08-18T06:16:12.306Z,18.09
2022-08-18T06:17:12.272Z,18.06
2022-08-18T06:18:12.266Z,18.09
2022-08-18T06:19:12.270Z,18.17
2022-08-18T06:20:12.259Z,18.17
2022-08-18T06:21:12.356Z,18.26
2022-08-18T06:22:12.252Z,18.24
2022-08-18T06:23:12.248Z,18.27
2022-08-18T06:24:12.246Z,18.26
2022-08-18T06:25:12.227Z,18.23
2022-08-18T06:26:12.220Z,18.24
2022-08-18T06:27:12.334Z,18.20
2022-08-18T06:28:12.225Z,18.21
2022-08-18T06:29:12.198Z,18.23
2022-08-18T06:30:12.186Z,18.36
2022-08-18T06:31:12.198Z,18.43
2022-08-18T06:32:12.286Z,18.46
2022-08-18T06:33:12.181Z,18.56
2022-08-18T06:34:12.168Z,18.61
2022-08-18T06:35:12.176Z,18.63
2022-08-18T06:36:12.171Z,18.71
2022-08-18T06:37:12.166Z,18.82
2022-08-18T06:38:12.180Z,18.88
2022-08-18T06:39:12.140Z,18.93
2022-08-18T06:40:12.196Z,18.86
2022-08-18T06:41:42.064Z,18.93
2022-08-18T06:42:13.149Z,18.98
2022-08-18T06:43:12.156Z,19.01
2022-08-18T06:44:12.129Z,19.09
2022-08-18T06:45:12.128Z,19.01
2022-08-18T06:46:12.114Z,19.12
2022-08-18T06:47:12.105Z,19.16
2022-08-18T06:48:15.244Z,19.17
2022-08-18T06:49:12.256Z,19.23
2022-08-18T06:50:12.093Z,19.22
2022-08-18T06:51:12.099Z,19.31
2022-08-18T06:52:12.073Z,19.41
2022-08-18T06:53:25.902Z,19.35
2022-08-18T06:54:13.091Z,19.41
2022-08-18T06:55:12.063Z,19.41
2022-08-18T06:56:26.504Z,19.47
2022-08-18T06:57:13.049Z,19.50
2022-08-18T06:58:12.049Z,19.50
2022-08-18T06:59:12.043Z,19.56
2022-08-18T07:00:12.179Z,19.49
2022-08-18T07:01:12.108Z,19.50
2022-08-18T07:02:12.023Z,19.56
2022-08-18T07:03:12.016Z,19.50
2022-08-18T07:04:12.012Z,19.53
2022-08-18T07:05:12.956Z,19.60
2022-08-18T07:06:12.005Z,19.62
2022-08-18T07:07:11.995Z,19.62
2022-08-18T07:08:11.997Z,19.71
2022-08-18T07:09:11.979Z,19.75
2022-08-18T07:10:11.978Z,19.67
2022-08-18T07:11:12.099Z,19.74
2022-08-18T07:12:11.969Z,19.75
2022-08-18T07:13:11.953Z,19.77
2022-08-18T07:14:16.632Z,19.81
2022-08-18T07:15:11.957Z,19.70
2022-08-18T07:16:11.967Z,19.70
2022-08-18T07:17:11.951Z,19.84
2022-08-18T07:18:11.989Z,19.86
2022-08-18T07:19:11.935Z,19.84
2022-08-18T07:20:11.915Z,19.87
2022-08-18T07:21:11.903Z,19.97
2022-08-18T07:22:12.071Z,19.92
2022-08-18T07:23:11.914Z,19.96
2022-08-18T07:24:24.999Z,20.00
2022-08-18T07:25:13.903Z,20.08
2022-08-18T07:26:11.878Z,20.11
2022-08-18T07:27:11.906Z,20.11
2022-08-18T07:28:11.888Z,20.14
2022-08-18T07:29:11.871Z,19.84
2022-08-18T07:30:15.765Z,19.78
2022-08-18T07:31:16.877Z,19.79
2022-08-18T07:32:21.264Z,19.67
2022-08-18T07:33:13.848Z,19.71
2022-08-18T07:34:11.830Z,19.70
2022-08-18T07:35:11.824Z,19.64
2022-08-18T07:36:11.864Z,19.71
2022-08-18T07:37:11.821Z,19.54
2022-08-18T07:38:40.642Z,19.53
2022-08-18T07:39:13.826Z,19.70
2022-08-18T07:40:11.877Z,19.74
2022-08-18T07:41:11.821Z,19.71
2022-08-18T07:42:11.782Z,19.71
2022-08-18T07:43:11.805Z,19.92
2022-08-18T07:44:13.924Z,19.94
2022-08-18T07:45:12.782Z,20.09
2022-08-18T07:46:11.796Z,20.11
2022-08-18T07:47:11.767Z,20.18
2022-08-18T07:48:34.881Z,20.30
2022-08-18T07:49:12.793Z,20.44
2022-08-18T07:50:27.289Z,20.42
2022-08-18T07:51:13.751Z,20.48
2022-08-18T07:52:14.638Z,20.63
2022-08-18T07:53:12.766Z,20.80
2022-08-18T07:54:31.080Z,20.93
2022-08-18T07:55:12.746Z,20.92
2022-08-18T07:56:11.728Z,20.97
2022-08-18T07:57:15.238Z,20.95
2022-08-18T07:58:12.739Z,20.98
2022-08-18T07:59:11.719Z,21.07
2022-08-18T08:00:23.122Z,21.26
2022-08-18T08:01:12.691Z,21.35
2022-08-18T08:02:11.735Z,21.26
2022-08-18T08:03:11.663Z,21.38
2022-08-18T08:04:25.474Z,21.38
2022-08-18T08:05:12.686Z,21.51
2022-08-18T08:06:11.660Z,21.51
2022-08-18T08:07:26.507Z,21.51
2022-08-18T08:08:13.653Z,21.40
2022-08-18T08:09:11.663Z,21.28
2022-08-18T08:10:11.663Z,21.28
2022-08-18T08:11:11.675Z,21.28
2022-08-18T08:12:11.639Z,21.35
2022-08-18T08:13:11.625Z,21.41
2022-08-18T08:14:11.656Z,21.41
2022-08-18T08:15:11.620Z,21.38
2022-08-18T08:16:11.618Z,21.32
2022-08-18T08:17:11.612Z,21.28
2022-08-18T08:18:11.680Z,21.23
2022-08-18T08:19:12.164Z,21.11
2022-08-18T08:20:11.591Z,21.07
2022-08-18T08:21:11.585Z,20.97
2022-08-18T08:22:11.591Z,21.05
2022-08-18T08:23:11.568Z,20.98
2022-08-18T08:24:11.572Z,20.89
2022-08-18T08:25:35.178Z,20.93
2022-08-18T08:26:13.592Z,20.89
2022-08-18T08:27:11.566Z,20.92
2022-08-18T08:28:12.316Z,20.83
2022-08-18T08:29:11.601Z,20.89
2022-08-18T08:30:11.641Z,20.75
2022-08-18T08:31:35.942Z,20.80
2022-08-18T08:32:13.568Z,20.68
2022-08-18T08:33:11.526Z,20.55
2022-08-18T08:34:11.520Z,20.58
2022-08-18T08:35:16.040Z,20.44
2022-08-18T08:36:12.530Z,20.44
2022-08-18T08:37:11.513Z,20.50
2022-08-18T08:38:39.241Z,20.46
2022-08-18T08:39:13.486Z,20.50
2022-08-18T08:40:11.616Z,20.46
2022-08-18T08:41:11.586Z,20.44
2022-08-18T08:42:31.350Z,20.49
2022-08-18T08:43:11.468Z,20.41
2022-08-18T08:44:11.467Z,20.48
2022-08-18T08:45:11.463Z,20.30
2022-08-18T08:46:11.452Z,20.26
2022-08-18T08:47:11.482Z,20.29
2022-08-18T08:48:11.457Z,20.23
2022-08-18T08:49:11.447Z,20.18
2022-08-18T08:50:11.420Z,20.11
2022-08-18T08:51:11.427Z,20.09
2022-08-18T08:52:11.465Z,20.02
2022-08-18T08:53:11.420Z,20.09
2022-08-18T08:54:11.406Z,20.08
2022-08-18T08:55:11.384Z,20.05
2022-08-18T08:56:12.411Z,20.11
2022-08-18T08:57:11.409Z,20.11
2022-08-18T08:58:11.428Z,20.12
2022-08-18T08:59:11.380Z,20.09
2022-08-18T09:00:11.388Z,20.11
2022-08-18T09:01:11.376Z,20.02
2022-08-18T09:02:22.649Z,20.08
2022-08-18T09:03:12.374Z,20.07
2022-08-18T09:04:11.356Z,20.02
2022-08-18T09:05:11.354Z,19.99
2022-08-18T09:06:11.348Z,19.99
2022-08-18T09:07:11.376Z,19.96
2022-08-18T09:08:11.335Z,19.99
2022-08-18T09:09:11.363Z,19.94
2022-08-18T09:10:11.323Z,19.96
2022-08-18T09:11:11.325Z,20.00
2022-08-18T09:12:11.313Z,19.93
2022-08-18T09:13:11.314Z,20.09
2022-08-18T09:14:11.326Z,20.12
2022-08-18T09:15:11.298Z,20.09
2022-08-18T09:16:13.485Z,20.07
2022-08-18T09:17:11.303Z,20.09
2022-08-18T09:18:11.276Z,20.07
2022-08-18T09:19:11.269Z,20.08
2022-08-18T09:20:11.386Z,19.99
2022-08-18T09:21:11.271Z,19.96
2022-08-18T09:22:11.265Z,20.02
2022-08-18T09:23:11.253Z,19.87
2022-08-18T09:24:11.252Z,19.72
2022-08-18T09:25:11.276Z,19.71
2022-08-18T09:26:11.246Z,19.64
2022-08-18T09:27:11.231Z,19.60
2022-08-18T09:28:11.810Z,19.63
2022-08-18T09:29:11.216Z,19.47
2022-08-18T09:30:11.233Z,19.41
2022-08-18T09:31:11.323Z,19.47
2022-08-18T09:32:11.732Z,19.49
2022-08-18T09:33:18.861Z,19.45
2022-08-18T09:34:12.195Z,19.42
2022-08-18T09:35:11.179Z,19.59
2022-08-18T09:36:11.320Z,19.38
2022-08-18T09:37:11.202Z,19.45
2022-08-18T09:38:11.360Z,19.45
2022-08-18T09:39:11.168Z,19.54
2022-08-18T09:40:12.857Z,19.59
2022-08-18T09:41:11.215Z,19.68
2022-08-18T09:42:11.246Z,19.72
2022-08-18T09:43:11.144Z,19.74
2022-08-18T09:45:12.134Z,19.79
2022-08-18T09:47:43.189Z,19.82
2022-08-18T09:48:11.136Z,19.97
2022-08-18T09:49:11.119Z,20.02
2022-08-18T09:50:24.536Z,20.11
2022-08-18T09:51:12.092Z,20.17
2022-08-18T09:52:11.086Z,20.30
2022-08-18T09:53:11.201Z,20.23
2022-08-18T09:54:11.060Z,20.39
2022-08-18T09:55:11.076Z,20.49
2022-08-18T09:56:11.058Z,20.61
2022-08-18T09:57:11.067Z,20.79
2022-08-18T09:58:11.046Z,20.86
2022-08-18T09:59:11.311Z,20.95
2022-08-18T10:00:11.036Z,20.88
2022-08-18T10:01:11.071Z,20.97
2022-08-18T10:02:18.826Z,21.03
2022-08-18T10:03:12.046Z,21.04
2022-08-18T10:04:12.161Z,21.16
2022-08-18T10:05:11.002Z,21.07
2022-08-18T10:06:12.526Z,21.14
2022-08-18T10:07:10.992Z,21.13
2022-08-18T10:08:10.992Z,21.08
2022-08-18T10:09:14.702Z,21.10
2022-08-18T10:10:12.971Z,21.10
2022-08-18T10:11:11.974Z,21.18
2022-08-18T10:12:16.010Z,21.13
2022-08-18T10:13:10.957Z,21.10
2022-08-18T10:14:10.985Z,21.11
2022-08-18T10:15:10.961Z,20.92
2022-08-18T10:16:11.387Z,20.92
2022-08-18T10:17:23.338Z,20.95
2022-08-18T10:18:12.960Z,20.82
2022-08-18T10:19:10.973Z,20.82
2022-08-18T10:20:25.967Z,20.80
2022-08-18T10:21:11.936Z,20.92
2022-08-18T10:22:10.935Z,20.98
2022-08-18T10:23:10.919Z,20.97
2022-08-18T10:25:22.834Z,21.00
2022-08-18T10:26:13.450Z,21.07
2022-08-18T10:27:11.897Z,21.20
2022-08-18T10:28:11.946Z,21.10
2022-08-18T10:29:10.895Z,21.00
2022-08-18T10:30:12.206Z,21.10
2022-08-18T10:31:10.875Z,21.18
2022-08-18T10:32:14.228Z,21.23
2022-08-18T10:33:18.344Z,21.29
2022-08-18T10:34:19.258Z,21.28
2022-08-18T10:35:12.953Z,21.30
2022-08-18T10:36:11.152Z,21.40
2022-08-18T10:37:10.825Z,21.41
2022-08-18T10:38:10.850Z,21.41
2022-08-18T10:39:10.849Z,21.40
2022-08-18T10:41:15.430Z,21.38
2022-08-18T10:42:11.066Z,21.45
2022-08-18T10:43:45.986Z,21.38
2022-08-18T10:44:28.252Z,21.58
2022-08-18T10:45:12.807Z,21.56
2022-08-18T10:46:29.449Z,21.53
2022-08-18T10:47:12.778Z,21.62
2022-08-18T10:48:16.876Z,21.48
2022-08-18T10:49:10.767Z,21.66
2022-08-18T10:50:10.890Z,21.69
2022-08-18T10:51:10.758Z,21.69
2022-08-18T10:52:10.803Z,21.69
2022-08-18T10:53:38.527Z,21.63
2022-08-18T10:54:12.752Z,21.75
2022-08-18T10:55:11.755Z,21.90
2022-08-18T10:56:10.738Z,21.88
2022-08-18T10:57:10.906Z,21.97
2022-08-18T10:58:10.719Z,21.90
2022-08-18T10:59:16.087Z,21.91
2022-08-18T11:00:10.864Z,22.00
2022-08-18T11:01:10.696Z,22.01
2022-08-18T11:02:10.717Z,22.03
2022-08-18T11:04:14.379Z,22.28
2022-08-18T11:05:10.682Z,22.40
2022-08-18T11:06:14.554Z,22.58
2022-08-18T11:07:11.672Z,22.53
2022-08-18T11:08:15.570Z,22.52
2022-08-18T11:09:11.674Z,22.53
2022-08-18T11:10:28.581Z,22.51
2022-08-18T11:11:34.151Z,22.46
2022-08-18T11:12:12.636Z,22.40
2022-08-18T11:13:10.639Z,22.34
2022-08-18T11:14:10.667Z,22.37
2022-08-18T11:15:23.090Z,22.34
2022-08-18T11:16:13.320Z,22.34
2022-08-18T11:17:10.623Z,22.22
2022-08-18T11:18:10.820Z,22.12
2022-08-18T11:19:11.384Z,22.01
2022-08-18T11:20:10.597Z,21.98
2022-08-18T11:21:13.671Z,21.97
2022-08-18T11:23:11.574Z,21.77
2022-08-18T11:24:11.608Z,21.74
2022-08-18T11:25:11.623Z,21.81
2022-08-18T11:26:10.568Z,21.74
2022-08-18T11:27:15.415Z,21.75
2022-08-18T11:28:11.569Z,21.63
2022-08-18T11:29:10.542Z,21.73
2022-08-18T11:30:13.461Z,21.78
2022-08-18T11:31:10.545Z,21.71
2022-08-18T11:33:11.522Z,21.90
2022-08-18T11:34:11.860Z,21.82
2022-08-18T11:35:11.545Z,21.94
2022-08-18T11:36:10.520Z,21.96
2022-08-18T11:37:10.505Z,22.06
2022-08-18T11:38:12.390Z,22.15
2022-08-18T11:39:10.501Z,22.27
2022-08-18T11:40:14.074Z,22.37
2022-08-18T11:41:12.895Z,22.51
2022-08-18T11:42:15.784Z,22.53
2022-08-18T11:43:11.560Z,22.68
2022-08-18T11:44:10.474Z,22.66
2022-08-18T11:45:10.476Z,22.40
2022-08-18T11:46:10.455Z,22.23
2022-08-18T11:47:10.586Z,22.22
2022-08-18T11:48:10.453Z,22.27
2022-08-18T11:49:11.456Z,22.34
2022-08-18T11:50:10.451Z,22.41
2022-08-18T11:51:10.437Z,22.40
2022-08-18T11:52:10.470Z,22.49
2022-08-18T11:53:10.425Z,22.58
2022-08-18T11:54:10.431Z,22.66
2022-08-18T11:55:14.315Z,22.67
2022-08-18T11:57:11.424Z,22.51
2022-08-18T11:58:12.713Z,22.51
2022-08-18T11:59:11.679Z,22.43
2022-08-18T12:00:10.389Z,22.41
2022-08-18T12:01:10.409Z,22.27
2022-08-18T12:02:10.390Z,22.27
2022-08-18T12:03:10.472Z,22.03
2022-08-18T12:04:10.422Z,22.06
2022-08-18T12:05:10.756Z,22.00
2022-08-18T12:06:10.387Z,22.07
2022-08-18T12:07:11.374Z,22.18
2022-08-18T12:08:11.349Z,22.18
2022-08-18T12:09:16.389Z,22.21
2022-08-18T12:10:17.693Z,22.18
2022-08-18T12:11:26.764Z,22.12
2022-08-18T12:12:10.359Z,22.19
2022-08-18T12:13:11.461Z,22.16
2022-08-18T12:14:32.703Z,22.19
2022-08-18T12:15:17.163Z,22.27
2022-08-18T12:16:11.321Z,22.23
2022-08-18T12:17:10.323Z,22.30
2022-08-18T12:18:10.313Z,22.23
2022-08-18T12:19:12.177Z,22.34
2022-08-18T12:20:11.897Z,22.36
2022-08-18T12:21:10.288Z,22.44
2022-08-18T12:22:11.983Z,22.44
2022-08-18T12:23:11.378Z,22.61
2022-08-18T12:24:10.265Z,22.58
2022-08-18T12:25:12.108Z,22.43
2022-08-18T12:26:26.951Z,22.44
2022-08-18T12:27:12.550Z,22.36
2022-08-18T12:28:10.986Z,22.30
2022-08-18T12:29:11.243Z,22.25
2022-08-18T12:30:16.439Z,22.21
2022-08-18T12:31:14.999Z,22.27
2022-08-18T12:32:17.842Z,22.23
2022-08-18T12:33:12.553Z,22.30
2022-08-18T12:34:13.584Z,22.27
2022-08-18T12:35:10.217Z,22.28
2022-08-18T12:36:10.193Z,22.37
2022-08-18T12:37:34.038Z,22.44
2022-08-18T12:38:13.905Z,22.44
2022-08-18T12:39:10.187Z,22.53
2022-08-18T12:40:10.324Z,22.48
2022-08-18T12:41:10.181Z,22.38
2022-08-18T12:42:10.205Z,22.36
2022-08-18T12:43:10.540Z,22.23
2022-08-18T12:44:13.408Z,22.15
2022-08-18T12:45:10.256Z,22.07
2022-08-18T12:46:11.958Z,22.00
2022-08-18T12:47:10.157Z,22.06
2022-08-18T12:48:10.137Z,22.04
2022-08-18T12:49:10.142Z,22.15
2022-08-18T12:50:10.132Z,22.12
2022-08-18T12:51:10.260Z,21.97
2022-08-18T12:52:11.951Z,21.88
2022-08-18T12:53:10.106Z,21.93
2022-08-18T12:54:10.557Z,21.88
2022-08-18T12:56:11.225Z,22.00
2022-08-18T12:57:10.070Z,22.03
2022-08-18T12:58:10.073Z,22.15
2022-08-18T12:59:10.098Z,22.01
2022-08-18T13:00:10.080Z,21.88
2022-08-18T13:01:10.403Z,21.85